Time;durP1;ratioP1;P1;durP2;ratioP2;P2;SDS_P1;SDS_P2;PMS_P1;PMS_P2;Temp;Humidity;BMP_temperature;BMP_pressure;BME280_temperature;BME280_humidity;BME280_pressure;Samples;Min_cycle;Max_cycle;Signal;HPM_P1;HPM_P2
2024/02/11 00:01:08;;;;;;;8.13;5.30;;;10.00;99.90;;;;;;5135594;28;20418;-54
2024/02/11 00:03:37;;;;;;;6.07;4.20;;;10.00;99.90;;;;;;5133812;28;20831;-56
2024/02/11 00:06:06;;;;;;;7.80;4.68;;;10.00;99.90;;;;;;5135460;28;20884;-53
2024/02/11 00:08:33;;;;;;;8.15;4.35;;;10.00;99.90;;;;;;5131826;28;20946;-59
2024/02/11 00:11:00;;;;;;;7.30;4.70;;;10.10;99.90;;;;;;5134671;28;20487;-51
2024/02/11 00:13:28;;;;;;;8.95;5.10;;;10.10;99.90;;;;;;5134515;28;20422;-49
2024/02/11 00:15:56;;;;;;;7.43;4.60;;;10.00;99.90;;;;;;5134473;28;20437;-52
2024/02/11 00:18:28;;;;;;;7.53;5.22;;;10.00;99.90;;;;;;5133629;28;20418;-53
2024/02/11 00:21:01;;;;;;;6.57;5.07;;;10.00;99.90;;;;;;5131810;28;20420;-56
2024/02/11 00:23:29;;;;;;;7.72;5.10;;;10.10;99.90;;;;;;5133923;28;20513;-55
2024/02/11 00:25:57;;;;;;;6.50;4.90;;;10.10;99.90;;;;;;5133146;28;20509;-50
2024/02/11 00:28:25;;;;;;;9.25;5.22;;;10.10;99.90;;;;;;5134991;28;20418;-53
2024/02/11 00:30:53;;;;;;;8.57;5.25;;;10.10;99.90;;;;;;5131645;28;20781;-54
2024/02/11 00:33:20;;;;;;;7.78;5.80;;;10.00;99.90;;;;;;5135144;28;20426;-50
2024/02/11 00:35:47;;;;;;;7.60;5.13;;;9.90;99.90;;;;;;5135832;28;20411;-55
2024/02/11 00:38:17;;;;;;;9.23;5.53;;;9.80;99.90;;;;;;5132035;28;20418;-57
2024/02/11 00:40:50;;;;;;;9.82;5.55;;;9.70;99.90;;;;;;5134286;28;20475;-53
2024/02/11 00:43:17;;;;;;;9.25;5.88;;;9.70;99.90;;;;;;5131931;28;20762;-55
2024/02/11 00:45:44;;;;;;;7.97;5.13;;;9.70;99.90;;;;;;5134591;28;20428;-56
2024/02/11 00:48:11;;;;;;;11.23;5.90;;;9.70;99.90;;;;;;5136209;27;20487;-53
2024/02/11 00:50:38;;;;;;;11.55;5.70;;;9.70;99.90;;;;;;5139793;27;20431;-52
2024/02/11 00:53:05;;;;;;;8.02;4.60;;;9.70;99.90;;;;;;5139148;27;20414;-53
2024/02/11 00:55:35;;;;;;;7.85;4.55;;;9.80;99.90;;;;;;5139503;27;20422;-53
2024/02/11 00:58:03;;;;;;;7.90;4.55;;;9.90;99.90;;;;;;5139041;27;20434;-52
2024/02/11 01:00:30;;;;;;;10.55;3.90;;;9.90;99.90;;;;;;5139354;27;20428;-53
2024/02/11 01:02:57;;;;;;;6.47;4.50;;;9.90;99.90;;;;;;5134042;27;20518;-52
2024/02/11 01:05:24;;;;;;;6.88;5.20;;;9.90;99.90;;;;;;5130961;27;20451;-52
2024/02/11 01:07:51;;;;;;;5.15;3.95;;;9.90;99.90;;;;;;5139244;27;20418;-52
2024/02/11 01:10:21;;;;;;;6.77;4.27;;;10.00;99.90;;;;;;5138901;27;20469;-54
2024/02/11 01:12:49;;;;;;;7.88;4.88;;;10.00;99.90;;;;;;5137165;27;20475;-51
2024/02/11 01:15:17;;;;;;;7.40;3.00;;;10.00;99.90;;;;;;5139075;27;20517;-52
2024/02/11 01:17:45;;;;;;;5.88;3.97;;;9.90;99.90;;;;;;5138201;27;20418;-49
2024/02/11 01:20:13;;;;;;;8.47;4.40;;;10.00;99.90;;;;;;5139157;27;20471;-53
2024/02/11 01:22:42;;;;;;;7.47;3.58;;;10.00;99.90;;;;;;5139518;27;20459;-54
2024/02/11 01:25:10;;;;;;;8.18;5.15;;;10.00;99.90;;;;;;5135818;27;20419;-52
2024/02/11 01:27:37;;;;;;;7.85;4.25;;;10.10;99.90;;;;;;5137779;27;20472;-51
2024/02/11 01:30:08;;;;;;;6.63;4.18;;;10.10;99.90;;;;;;5137581;27;20441;-54
2024/02/11 01:32:35;;;;;;;5.38;3.40;;;10.10;99.90;;;;;;5139101;27;20441;-55
2024/02/11 01:35:02;;;;;;;7.60;3.88;;;10.10;99.90;;;;;;5139395;27;20442;-52
2024/02/11 01:37:29;;;;;;;7.43;3.60;;;10.10;99.90;;;;;;5139185;27;20422;-52
2024/02/11 01:39:56;;;;;;;7.70;3.80;;;10.10;99.90;;;;;;5138133;27;20840;-49
2024/02/11 01:42:23;;;;;;;7.38;4.20;;;10.20;99.90;;;;;;5138538;27;20442;-55
2024/02/11 01:44:50;;;;;;;5.82;3.20;;;10.10;99.90;;;;;;5135860;27;20414;-48
2024/02/11 01:47:19;;;;;;;5.80;3.72;;;10.10;99.90;;;;;;5128629;27;20406;-52
2024/02/11 01:49:47;;;;;;;6.88;3.97;;;10.10;99.90;;;;;;5139070;27;20487;-50
2024/02/11 01:52:15;;;;;;;6.07;3.95;;;10.10;99.90;;;;;;5138697;27;20469;-51
2024/02/11 01:54:42;;;;;;;5.80;4.18;;;10.10;99.90;;;;;;5138967;27;20418;-49
2024/02/11 01:57:10;;;;;;;8.05;4.18;;;10.10;99.90;;;;;;5136277;27;20418;-51
2024/02/11 01:59:38;;;;;;;5.82;3.63;;;10.10;99.90;;;;;;5137671;27;20472;-52
2024/02/11 02:02:10;;;;;;;8.32;4.18;;;10.10;99.90;;;;;;5137953;27;20893;-54
2024/02/11 02:04:39;;;;;;;8.73;4.95;;;10.10;99.90;;;;;;5138389;27;20493;-54
2024/02/11 02:07:06;;;;;;;7.40;3.92;;;10.10;99.90;;;;;;5138637;27;20450;-55
2024/02/11 02:09:33;;;;;;;9.07;4.82;;;10.10;99.90;;;;;;5137855;27;20766;-52
2024/02/11 02:12:04;;;;;;;9.27;5.20;;;10.10;99.90;;;;;;5137625;27;20450;-52
2024/02/11 02:14:31;;;;;;;6.47;3.97;;;10.00;99.90;;;;;;5135286;27;20414;-51
2024/02/11 02:16:58;;;;;;;8.95;4.57;;;10.00;99.90;;;;;;5138345;27;20649;-54
2024/02/11 02:19:27;;;;;;;6.10;4.10;;;9.90;99.90;;;;;;5137657;27;20415;-54
2024/02/11 02:21:56;;;;;;;7.47;3.97;;;9.90;99.90;;;;;;5137684;27;20820;-57
2024/02/11 02:24:23;;;;;;;7.70;4.57;;;10.00;99.90;;;;;;5137787;27;20838;-52
2024/02/11 02:26:50;;;;;;;6.68;3.28;;;10.00;99.90;;;;;;5132196;27;20466;-51
2024/02/11 02:29:17;;;;;;;5.75;3.35;;;9.90;99.90;;;;;;5136984;27;20414;-51
2024/02/11 02:31:44;;;;;;;5.57;3.30;;;9.90;99.90;;;;;;5137421;27;20436;-52
2024/02/11 02:34:11;;;;;;;7.63;4.30;;;10.00;99.90;;;;;;5137183;27;20426;-54
2024/02/11 02:36:39;;;;;;;4.03;3.00;;;9.90;99.90;;;;;;5137600;27;20426;-54
2024/02/11 02:39:10;;;;;;;6.47;3.93;;;9.90;99.90;;;;;;5137251;27;20840;-54
2024/02/11 02:41:38;;;;;;;7.72;4.25;;;9.90;99.90;;;;;;5137315;27;20403;-52
2024/02/11 02:44:05;;;;;;;5.78;3.72;;;9.90;99.90;;;;;;5137122;27;20422;-52
2024/02/11 02:46:32;;;;;;;6.78;3.70;;;9.90;99.90;;;;;;5137453;27;20418;-54
2024/02/11 02:48:59;;;;;;;3.78;3.13;;;9.90;99.90;;;;;;5137535;27;20450;-53
2024/02/11 02:51:26;;;;;;;5.37;3.10;;;9.90;99.90;;;;;;5136594;27;20491;-55
2024/02/11 02:53:53;;;;;;;6.75;3.80;;;9.90;99.90;;;;;;5136891;27;20415;-56
2024/02/11 02:56:23;;;;;;;5.53;3.80;;;9.80;99.90;;;;;;5136980;27;20414;-54
2024/02/11 02:58:50;;;;;;;5.37;3.63;;;9.90;99.90;;;;;;5133678;27;20414;-55
2024/02/11 03:01:22;;;;;;;7.05;3.78;;;9.80;99.90;;;;;;5137081;27;20454;-54
2024/02/11 03:03:50;;;;;;;6.97;4.80;;;9.80;99.90;;;;;;5133527;27;20422;-51
2024/02/11 03:06:17;;;;;;;8.55;4.40;;;9.70;99.90;;;;;;5137051;27;20454;-50
2024/02/11 03:08:44;;;;;;;7.88;3.70;;;9.70;99.90;;;;;;5136811;27;20473;-54
2024/02/11 03:11:11;;;;;;;3.80;1.83;;;9.70;99.90;;;;;;5135350;27;20754;-51
2024/02/11 03:13:40;;;;;;;1.38;0.80;;;9.70;99.90;;;;;;5135748;27;20430;-55
2024/02/11 03:16:08;;;;;;;0.80;0.50;;;9.70;99.90;;;;;;5136785;27;21054;-53
2024/02/11 03:18:34;;;;;;;1.00;0.50;;;9.50;99.90;;;;;;5136757;27;20422;-51
2024/02/11 03:21:01;;;;;;;0.80;0.40;;;9.60;99.90;;;;;;5136929;27;20449;-50
2024/02/11 03:23:28;;;;;;;0.80;0.30;;;9.50;99.90;;;;;;5136635;27;20410;-50
2024/02/11 03:25:55;;;;;;;0.40;0.20;;;9.40;99.90;;;;;;5136351;27;20819;-51
2024/02/11 03:28:22;;;;;;;0.40;0.20;;;9.30;99.90;;;;;;5136254;27;20681;-51
2024/02/11 03:30:50;;;;;;;0.40;0.10;;;9.20;99.90;;;;;;5129242;27;20436;-50
2024/02/11 03:33:17;;;;;;;0.30;0.10;;;9.10;99.90;;;;;;5132015;27;20479;-51
2024/02/11 03:35:45;;;;;;;1.00;0.10;;;9.10;99.90;;;;;;5136672;27;20446;-53
2024/02/11 03:38:12;;;;;;;0.38;0.10;;;9.10;99.90;;;;;;5136860;27;20418;-52
2024/02/11 03:40:39;;;;;;;0.30;0.10;;;9.00;99.90;;;;;;5137135;27;20474;-51
2024/02/11 03:43:06;;;;;;;0.30;0.10;;;8.90;99.90;;;;;;5137523;27;20446;-53
2024/02/11 03:45:33;;;;;;;0.30;0.10;;;8.90;99.90;;;;;;5135942;27;20418;-52
2024/02/11 03:48:01;;;;;;;0.30;0.10;;;8.80;99.90;;;;;;5131117;27;20432;-54
2024/02/11 03:50:28;;;;;;;0.30;0.10;;;8.90;99.90;;;;;;5131813;27;20430;-51
2024/02/11 03:52:56;;;;;;;0.80;0.10;;;8.70;99.90;;;;;;5136657;27;20452;-51
2024/02/11 03:55:23;;;;;;;0.30;0.10;;;8.70;99.90;;;;;;5136301;28;20425;-56
2024/02/11 03:57:51;;;;;;;0.30;0.10;;;8.70;99.90;;;;;;5133932;28;20414;-52
2024/02/11 04:00:19;;;;;;;0.30;0.10;;;8.70;99.90;;;;;;5136656;28;20464;-54
2024/02/11 04:02:46;;;;;;;0.40;0.10;;;8.60;99.90;;;;;;5136664;28;20707;-54
2024/02/11 04:05:16;;;;;;;0.40;0.10;;;8.50;99.90;;;;;;5136456;28;20410;-49
2024/02/11 04:07:45;;;;;;;0.30;0.10;;;8.50;99.90;;;;;;5135082;28;20418;-52
2024/02/11 04:10:19;;;;;;;0.30;0.10;;;8.60;99.90;;;;;;5133148;28;20422;-52
2024/02/11 04:12:47;;;;;;;0.30;0.10;;;8.60;99.90;;;;;;5134917;28;20447;-50
2024/02/11 04:15:16;;;;;;;0.30;0.10;;;8.50;99.90;;;;;;5135567;28;20441;-51
2024/02/11 04:17:48;;;;;;;0.30;0.10;;;8.50;99.90;;;;;;5135377;28;20411;-52
2024/02/11 04:20:24;;;;;;;0.30;0.10;;;8.50;99.90;;;;;;5134256;28;20421;-53
2024/02/11 04:22:53;;;;;;;0.60;0.10;;;8.50;99.90;;;;;;5133977;27;20422;-53
2024/02/11 04:25:22;;;;;;;0.30;0.10;;;8.50;99.90;;;;;;5140711;27;20521;-59
2024/02/11 04:27:49;;;;;;;0.30;0.10;;;8.30;99.90;;;;;;5132074;27;20456;-52
2024/02/11 04:30:19;;;;;;;0.30;0.10;;;8.30;99.90;;;;;;5139422;27;20467;-55
2024/02/11 04:32:47;;;;;;;0.30;0.10;;;8.30;99.90;;;;;;5138818;27;20406;-54
2024/02/11 04:35:16;;;;;;;0.30;0.10;;;8.30;99.90;;;;;;5139047;27;20455;-53
2024/02/11 04:37:47;;;;;;;0.30;0.10;;;8.20;99.90;;;;;;5138976;27;20414;-52
2024/02/11 04:40:16;;;;;;;0.30;0.10;;;8.20;99.90;;;;;;5139470;27;20696;-51
2024/02/11 04:42:46;;;;;;;0.40;0.10;;;8.10;99.90;;;;;;5140262;27;20414;-52
2024/02/11 04:45:15;;;;;;;0.70;0.10;;;8.10;99.90;;;;;;5140768;27;20426;-53
2024/02/11 04:47:45;;;;;;;0.30;0.10;;;8.00;99.90;;;;;;5140969;27;20410;-54
2024/02/11 04:50:15;;;;;;;0.30;0.10;;;8.00;99.90;;;;;;5140663;27;20418;-55
2024/02/11 04:52:48;;;;;;;1.02;0.10;;;7.90;99.90;;;;;;5140544;27;20430;-51
2024/02/11 04:55:18;;;;;;;0.30;0.10;;;7.90;99.90;;;;;;5139838;27;20430;-55
2024/02/11 04:57:45;;;;;;;0.30;0.10;;;7.90;99.90;;;;;;5139358;27;20415;-53
2024/02/11 05:00:24;;;;;;;0.30;0.10;;;7.80;99.90;;;;;;5139370;27;20970;-51
2024/02/11 05:02:52;;;;;;;0.30;0.10;;;7.70;99.90;;;;;;5139184;27;20411;-52
2024/02/11 05:05:25;;;;;;;0.30;0.10;;;7.60;99.90;;;;;;5139046;27;20474;-50
2024/02/11 05:07:53;;;;;;;0.30;0.10;;;7.60;99.90;;;;;;5139513;27;20429;-51
2024/02/11 05:10:22;;;;;;;0.30;0.10;;;7.50;99.90;;;;;;5139860;27;20422;-51
2024/02/11 05:12:49;;;;;;;0.30;0.10;;;7.40;99.90;;;;;;5140027;27;20474;-49
2024/02/11 05:15:15;;;;;;;0.30;0.10;;;7.30;99.90;;;;;;5140032;27;20792;-50
2024/02/11 05:17:42;;;;;;;0.30;0.10;;;7.40;99.90;;;;;;5140401;27;20402;-54
2024/02/11 05:20:13;;;;;;;0.30;0.10;;;7.40;99.90;;;;;;5140365;27;20418;-48
2024/02/11 05:22:44;;;;;;;0.30;0.10;;;7.40;99.90;;;;;;5140135;27;20429;-48
2024/02/11 05:25:19;;;;;;;0.30;0.10;;;7.30;99.90;;;;;;5140320;27;20729;-48
2024/02/11 05:27:48;;;;;;;0.30;0.10;;;7.30;99.90;;;;;;5140212;27;20422;-49
2024/02/11 05:30:15;;;;;;;0.30;0.10;;;7.20;99.90;;;;;;5139746;27;20457;-53
2024/02/11 05:32:42;;;;;;;0.50;0.10;;;7.20;99.90;;;;;;5139805;27;20466;-50
2024/02/11 05:35:11;;;;;;;0.30;0.10;;;7.10;99.90;;;;;;5138403;27;20446;-49
2024/02/11 05:37:38;;;;;;;0.30;0.10;;;7.10;99.90;;;;;;5137703;27;20830;-49
2024/02/11 05:40:10;;;;;;;0.50;0.10;;;7.00;99.90;;;;;;5121700;27;20459;-52
2024/02/11 05:42:42;;;;;;;0.30;0.10;;;7.00;99.90;;;;;;5131325;27;20899;-49
2024/02/11 05:45:10;;;;;;;0.30;0.10;;;7.00;99.90;;;;;;5139728;27;20803;-52
2024/02/11 05:47:37;;;;;;;0.30;0.10;;;6.90;99.90;;;;;;5139594;27;20505;-50
2024/02/11 05:50:09;;;;;;;0.30;0.10;;;7.00;99.90;;;;;;5138832;27;20437;-50
2024/02/11 05:52:36;;;;;;;0.30;0.10;;;7.00;99.90;;;;;;5138480;27;20437;-52
2024/02/11 05:55:04;;;;;;;0.30;0.10;;;7.00;99.90;;;;;;5139030;27;20526;-51
2024/02/11 05:57:31;;;;;;;0.30;0.10;;;7.00;99.90;;;;;;5139636;27;20476;-49
2024/02/11 06:00:00;;;;;;;0.80;0.10;;;7.00;99.90;;;;;;5136173;27;20719;-51
2024/02/11 06:02:27;;;;;;;0.30;0.10;;;7.00;99.90;;;;;;5134718;27;20464;-52
2024/02/11 06:04:54;;;;;;;0.30;0.10;;;7.00;99.90;;;;;;5139679;27;20422;-48
2024/02/11 06:07:22;;;;;;;0.30;0.10;;;6.90;99.90;;;;;;5139611;27;20442;-51
2024/02/11 06:09:49;;;;;;;0.35;0.10;;;6.90;99.90;;;;;;5138394;27;20842;-52
2024/02/11 06:12:16;;;;;;;0.30;0.10;;;7.00;99.90;;;;;;5139179;27;20517;-51
2024/02/11 06:14:44;;;;;;;1.15;0.10;;;6.90;99.90;;;;;;5137608;27;20444;-53
2024/02/11 06:17:12;;;;;;;0.40;0.10;;;6.80;99.90;;;;;;5138687;27;20709;-53
2024/02/11 06:19:40;;;;;;;0.60;0.10;;;6.80;99.90;;;;;;5138305;27;20426;-54
2024/02/11 06:22:08;;;;;;;0.30;0.10;;;6.70;99.90;;;;;;5136382;27;20414;-50
2024/02/11 06:24:35;;;;;;;0.30;0.10;;;6.70;99.90;;;;;;5135383;27;20426;-53
2024/02/11 06:27:02;;;;;;;0.80;0.10;;;6.80;99.90;;;;;;5136024;27;20701;-48
2024/02/11 06:29:29;;;;;;;0.30;0.10;;;6.80;99.90;;;;;;5136498;27;20443;-53
2024/02/11 06:31:58;;;;;;;1.40;0.10;;;6.70;99.90;;;;;;5136567;27;20435;-52
2024/02/11 06:34:26;;;;;;;0.30;0.10;;;6.70;99.90;;;;;;5136399;27;20854;-48
2024/02/11 06:36:53;;;;;;;0.30;0.10;;;6.70;99.90;;;;;;5137823;27;20426;-52
2024/02/11 06:39:24;;;;;;;0.30;0.10;;;6.70;99.90;;;;;;5138287;27;20510;-52
2024/02/11 06:41:51;;;;;;;0.38;0.10;;;6.70;99.90;;;;;;5138147;27;20418;-53
2024/02/11 06:44:26;;;;;;;0.47;0.10;;;6.70;99.90;;;;;;5138522;27;20454;-53
2024/02/11 06:46:54;;;;;;;0.30;0.10;;;6.70;99.90;;;;;;5138839;27;20574;-51
2024/02/11 06:49:22;;;;;;;0.40;0.17;;;6.70;99.90;;;;;;5138605;27;20418;-49
2024/02/11 06:51:51;;;;;;;0.30;0.10;;;6.70;99.90;;;;;;5136068;27;20911;-48
2024/02/11 06:54:18;;;;;;;0.40;0.20;;;6.70;99.90;;;;;;5136441;27;20433;-53
2024/02/11 06:56:47;;;;;;;0.40;0.20;;;6.60;99.90;;;;;;5137233;27;20449;-52
2024/02/11 06:59:14;;;;;;;0.40;0.20;;;6.60;99.90;;;;;;5136502;27;20414;-50
2024/02/11 07:01:42;;;;;;;0.40;0.20;;;6.70;99.90;;;;;;5136281;27;20812;-53
2024/02/11 07:04:12;;;;;;;0.40;0.20;;;6.70;99.90;;;;;;5137220;27;20908;-51
2024/02/11 07:06:42;;;;;;;0.40;0.13;;;6.70;99.90;;;;;;5137527;27;20422;-49
2024/02/11 07:09:11;;;;;;;0.50;0.20;;;6.70;99.90;;;;;;5137097;27;20414;-51
2024/02/11 07:11:39;;;;;;;0.40;0.10;;;6.60;99.90;;;;;;5136904;27;20836;-50
2024/02/11 07:14:07;;;;;;;0.40;0.20;;;6.70;99.90;;;;;;5135982;27;20489;-51
2024/02/11 07:16:34;;;;;;;0.30;0.15;;;6.70;99.90;;;;;;5136363;27;20465;-54
2024/02/11 07:19:03;;;;;;;0.60;0.20;;;6.70;99.90;;;;;;5135623;27;20455;-49
2024/02/11 07:21:30;;;;;;;0.40;0.20;;;6.70;99.90;;;;;;5135629;27;20421;-53
2024/02/11 07:23:58;;;;;;;0.40;0.20;;;6.80;99.90;;;;;;5133991;27;20423;-49
2024/02/11 07:26:26;;;;;;;0.40;0.20;;;6.80;99.90;;;;;;5116024;27;20414;-54
2024/02/11 07:28:54;;;;;;;0.50;0.20;;;6.80;99.90;;;;;;5135276;27;20467;-51
2024/02/11 07:31:21;;;;;;;0.40;0.20;;;6.90;99.90;;;;;;5135193;27;20901;-49
2024/02/11 07:33:49;;;;;;;0.40;0.20;;;6.80;99.90;;;;;;5135279;27;20445;-48
2024/02/11 07:36:16;;;;;;;0.40;0.20;;;6.80;99.90;;;;;;5135502;27;20470;-51
2024/02/11 07:38:43;;;;;;;0.50;0.30;;;6.80;99.90;;;;;;5136982;27;20461;-50
2024/02/11 07:41:11;;;;;;;0.40;0.20;;;6.70;99.90;;;;;;5137608;27;20432;-53
2024/02/11 07:43:39;;;;;;;0.50;0.30;;;6.70;99.90;;;;;;5137233;27;20816;-53
2024/02/11 07:46:07;;;;;;;0.50;0.30;;;6.70;99.90;;;;;;5136400;27;20433;-49
2024/02/11 07:48:34;;;;;;;0.40;0.20;;;6.70;99.90;;;;;;5136657;27;20429;-48
2024/02/11 07:51:01;;;;;;;0.50;0.30;;;6.80;99.90;;;;;;5136635;27;20454;-49
2024/02/11 07:53:27;;;;;;;0.60;0.30;;;6.80;99.90;;;;;;5137131;27;20563;-48
2024/02/11 07:55:54;;;;;;;0.50;0.30;;;6.80;99.90;;;;;;5135592;27;20990;-52
2024/02/11 07:58:21;;;;;;;0.70;0.30;;;6.80;99.90;;;;;;5135129;27;20446;-50
2024/02/11 08:00:50;;;;;;;0.57;0.30;;;6.70;99.90;;;;;;5135828;28;20507;-51
2024/02/11 08:03:17;;;;;;;0.80;0.40;;;6.80;99.90;;;;;;5117436;28;20429;-53
2024/02/11 08:05:44;;;;;;;0.80;0.40;;;7.00;99.90;;;;;;5135745;28;20422;-51
2024/02/11 08:08:11;;;;;;;1.50;0.45;;;7.00;99.90;;;;;;5117112;28;20715;-54
2024/02/11 08:10:38;;;;;;;0.70;0.40;;;7.10;99.90;;;;;;5134158;28;20526;-52
2024/02/11 08:13:07;;;;;;;0.98;0.40;;;7.20;99.90;;;;;;5134672;28;20864;-50
2024/02/11 08:15:35;;;;;;;0.80;0.43;;;7.10;99.90;;;;;;5135853;28;20446;-52
2024/02/11 08:18:06;;;;;;;0.70;0.40;;;7.30;99.90;;;;;;5136286;28;20511;-51
2024/02/11 08:20:33;;;;;;;1.42;0.60;;;7.30;99.90;;;;;;5135187;28;21440;-49
2024/02/11 08:23:00;;;;;;;1.00;0.40;;;7.40;99.90;;;;;;5135093;28;20457;-47
2024/02/11 08:25:27;;;;;;;1.35;0.60;;;7.40;99.90;;;;;;5135136;28;20516;-52
2024/02/11 08:27:55;;;;;;;1.00;0.50;;;7.30;99.90;;;;;;5136155;28;20839;-49
2024/02/11 08:30:24;;;;;;;1.05;0.60;;;7.40;99.90;;;;;;5135657;28;20799;-49
2024/02/11 08:32:51;;;;;;;1.90;0.60;;;7.50;99.90;;;;;;5133685;28;20770;-48
2024/02/11 08:35:21;;;;;;;0.90;0.50;;;7.60;99.90;;;;;;5133235;28;20474;-52
2024/02/11 08:37:48;;;;;;;0.80;0.50;;;7.70;99.90;;;;;;5135717;28;20677;-51
2024/02/11 08:40:15;;;;;;;0.98;0.60;;;7.70;99.90;;;;;;5133316;28;20418;-47
2024/02/11 08:42:43;;;;;;;1.30;0.65;;;7.70;99.90;;;;;;5121182;28;20513;-53
2024/02/11 08:45:11;;;;;;;1.05;0.60;;;7.80;99.90;;;;;;5121725;28;20455;-49
2024/02/11 08:47:38;;;;;;;1.80;0.60;;;7.80;99.90;;;;;;5128299;27;20862;-53
2024/02/11 08:50:06;;;;;;;1.10;0.55;;;7.80;99.90;;;;;;5120935;28;20447;-53
2024/02/11 08:52:35;;;;;;;1.15;0.55;;;7.80;99.90;;;;;;5126886;28;20449;-53
2024/02/11 08:55:02;;;;;;;0.98;0.60;;;7.90;99.90;;;;;;5131520;28;20673;-52
2024/02/11 08:57:29;;;;;;;1.52;0.60;;;8.00;99.90;;;;;;5134783;28;20503;-53
2024/02/11 08:59:56;;;;;;;1.50;0.60;;;8.10;99.90;;;;;;5134326;28;20480;-53
2024/02/11 09:02:26;;;;;;;1.70;0.60;;;8.00;99.90;;;;;;5133604;28;20499;-53
2024/02/11 09:04:53;;;;;;;1.30;0.60;;;7.90;99.90;;;;;;5134317;28;20475;-55
2024/02/11 09:07:22;;;;;;;1.30;0.60;;;8.00;99.90;;;;;;5134236;28;20422;-55
2024/02/11 09:09:50;;;;;;;1.45;0.70;;;8.10;99.90;;;;;;5135629;27;20428;-55
2024/02/11 09:12:17;;;;;;;1.10;0.50;;;8.30;99.90;;;;;;5137759;27;20498;-54
2024/02/11 09:14:47;;;;;;;1.58;0.60;;;8.30;99.90;;;;;;5136580;27;20485;-54
2024/02/11 09:17:14;;;;;;;1.40;0.52;;;8.30;99.90;;;;;;5137862;27;20422;-54
2024/02/11 09:19:42;;;;;;;1.92;0.60;;;8.30;99.90;;;;;;5139311;27;20450;-54
2024/02/11 09:22:09;;;;;;;2.08;0.70;;;8.30;99.90;;;;;;5137609;27;20871;-53
2024/02/11 09:24:38;;;;;;;1.13;0.60;;;8.30;99.90;;;;;;5137873;27;20471;-52
2024/02/11 09:27:10;;;;;;;1.55;0.60;;;8.40;99.90;;;;;;5138510;27;20469;-53
2024/02/11 09:29:37;;;;;;;1.97;0.60;;;8.40;99.90;;;;;;5138424;27;20454;-48
2024/02/11 09:32:05;;;;;;;1.70;0.50;;;8.40;99.90;;;;;;5138289;27;20449;-54
2024/02/11 09:34:33;;;;;;;1.95;0.60;;;8.50;99.90;;;;;;5135455;27;20418;-53
2024/02/11 09:37:00;;;;;;;2.13;0.82;;;8.50;99.90;;;;;;5136211;27;20465;-53
2024/02/11 09:39:27;;;;;;;1.60;0.50;;;8.60;99.90;;;;;;5135709;27;20495;-56
2024/02/11 09:41:54;;;;;;;0.90;0.50;;;8.70;99.90;;;;;;5137351;27;20407;-54
2024/02/11 09:44:26;;;;;;;0.90;0.50;;;8.80;99.90;;;;;;5131967;27;20445;-52
2024/02/11 09:46:56;;;;;;;0.90;0.47;;;8.80;99.90;;;;;;5138997;27;20423;-56
2024/02/11 09:49:25;;;;;;;1.90;0.60;;;8.70;99.90;;;;;;5137376;27;20429;-55
2024/02/11 09:51:55;;;;;;;1.50;0.60;;;8.80;99.90;;;;;;5137193;27;20418;-54
2024/02/11 09:54:24;;;;;;;2.30;0.50;;;8.90;99.90;;;;;;5137543;27;20489;-51
2024/02/11 09:56:51;;;;;;;2.28;0.70;;;9.00;99.90;;;;;;5138353;27;20704;-53
2024/02/11 09:59:18;;;;;;;1.77;0.50;;;9.00;99.90;;;;;;5137733;27;20446;-56
2024/02/11 10:01:48;;;;;;;1.20;0.60;;;9.20;99.90;;;;;;5137235;27;20494;-56
2024/02/11 10:04:18;;;;;;;3.58;0.60;;;9.30;99.90;;;;;;5137327;27;20426;-52
2024/02/11 10:06:44;;;;;;;1.40;0.60;;;9.30;99.90;;;;;;5138066;27;20462;-56
2024/02/11 10:09:12;;;;;;;2.30;0.60;;;9.20;99.90;;;;;;5137952;27;20488;-54
2024/02/11 10:11:39;;;;;;;1.30;0.60;;;9.20;99.90;;;;;;5137352;27;20508;-55
2024/02/11 10:14:11;;;;;;;1.77;0.70;;;9.10;99.90;;;;;;5136505;27;20469;-52
2024/02/11 10:16:39;;;;;;;1.20;0.60;;;9.10;99.90;;;;;;5136044;27;20723;-54
2024/02/11 10:19:09;;;;;;;1.90;0.70;;;9.10;99.90;;;;;;5137249;27;20458;-51
2024/02/11 10:21:36;;;;;;;1.48;0.70;;;9.20;99.90;;;;;;5136998;27;20867;-56
2024/02/11 10:24:04;;;;;;;1.10;0.63;;;9.30;99.90;;;;;;5137434;27;20446;-56
2024/02/11 10:26:31;;;;;;;2.38;0.70;;;9.40;99.90;;;;;;5135013;27;20518;-53
2024/02/11 10:29:00;;;;;;;1.02;0.52;;;9.40;99.90;;;;;;5135497;27;20426;-55
2024/02/11 10:31:29;;;;;;;1.50;0.60;;;9.60;99.90;;;;;;5134196;27;20437;-53
2024/02/11 10:33:58;;;;;;;1.00;0.50;;;9.70;99.90;;;;;;5136136;27;20929;-54
2024/02/11 10:36:27;;;;;;;1.60;0.98;;;9.70;99.90;;;;;;5132627;27;20853;-56
2024/02/11 10:38:56;;;;;;;1.48;0.60;;;9.80;99.90;;;;;;5131692;27;20497;-53
2024/02/11 10:41:23;;;;;;;1.10;0.60;;;9.80;99.90;;;;;;5135926;27;20422;-54
2024/02/11 10:43:51;;;;;;;2.20;0.70;;;9.90;99.90;;;;;;5116082;28;20865;-55
2024/02/11 10:46:22;;;;;;;2.08;0.60;;;10.00;99.90;;;;;;5115788;28;20488;-52
2024/02/11 10:48:50;;;;;;;1.17;0.60;;;9.90;99.90;;;;;;5130572;27;20432;-57
2024/02/11 10:51:23;;;;;;;1.90;0.60;;;10.00;99.90;;;;;;5123201;27;20461;-58
2024/02/11 10:53:57;;;;;;;1.00;0.52;;;10.10;99.90;;;;;;5126602;27;20427;-57
2024/02/11 10:56:25;;;;;;;1.10;0.60;;;10.20;99.90;;;;;;5121181;27;20447;-54
2024/02/11 10:58:58;;;;;;;1.10;0.50;;;10.30;99.90;;;;;;5115664;28;20509;-56
2024/02/11 11:01:27;;;;;;;1.20;0.60;;;10.40;99.90;;;;;;5123432;27;20472;-56
2024/02/11 11:03:56;;;;;;;1.20;0.50;;;10.50;99.90;;;;;;5137696;27;20434;-54
2024/02/11 11:06:25;;;;;;;2.20;0.57;;;10.60;99.90;;;;;;5136660;27;20426;-58
2024/02/11 11:08:54;;;;;;;0.80;0.50;;;10.50;99.90;;;;;;5136938;27;20454;-54
2024/02/11 11:11:25;;;;;;;1.10;0.55;;;10.50;99.90;;;;;;5136776;27;20473;-50
2024/02/11 11:13:53;;;;;;;1.48;0.50;;;10.40;99.90;;;;;;5135916;27;20426;-53
2024/02/11 11:16:24;;;;;;;1.20;0.60;;;10.40;99.90;;;;;;5136936;27;20755;-57
2024/02/11 11:18:52;;;;;;;1.20;0.60;;;10.20;99.90;;;;;;5134880;27;20452;-52
2024/02/11 11:21:19;;;;;;;0.80;0.50;;;10.20;99.90;;;;;;5133583;27;20865;-55
2024/02/11 11:23:48;;;;;;;1.67;0.60;;;10.20;99.90;;;;;;5135233;27;20430;-55
2024/02/11 11:26:21;;;;;;;0.80;0.50;;;10.20;99.90;;;;;;5135042;27;20415;-51
2024/02/11 11:28:49;;;;;;;0.93;0.50;;;10.10;99.90;;;;;;5134908;27;20431;-55
2024/02/11 11:31:16;;;;;;;0.90;0.50;;;10.20;99.90;;;;;;5133328;27;20452;-56
2024/02/11 11:33:44;;;;;;;0.90;0.50;;;10.30;99.90;;;;;;5133989;27;20427;-56
2024/02/11 11:36:11;;;;;;;1.00;0.50;;;10.40;99.90;;;;;;5135301;27;20426;-53
2024/02/11 11:38:38;;;;;;;0.80;0.50;;;10.50;99.90;;;;;;5125390;27;20456;-54
2024/02/11 11:41:07;;;;;;;1.20;0.50;;;10.30;99.90;;;;;;5141286;27;20424;-53
2024/02/11 11:43:35;;;;;;;0.80;0.50;;;10.40;99.90;;;;;;5157846;27;20425;-54
2024/02/11 11:46:04;;;;;;;1.40;0.50;;;10.60;99.90;;;;;;5150244;27;20763;-56
2024/02/11 11:48:33;;;;;;;1.30;0.60;;;10.70;99.90;;;;;;5153632;27;20457;-57
2024/02/11 11:51:01;;;;;;;1.10;0.50;;;10.90;99.90;;;;;;5136544;27;20433;-55
2024/02/11 11:53:29;;;;;;;0.77;0.40;;;11.10;99.90;;;;;;5135690;27;20556;-55
2024/02/11 11:55:57;;;;;;;1.25;0.40;;;11.00;1.00;;;;;;5135740;27;20521;-57
2024/02/11 11:58:25;;;;;;;0.82;0.40;;;10.90;1.00;;;;;;5133068;28;20417;-57
2024/02/11 12:01:01;;;;;;;1.30;0.40;;;10.90;1.00;;;;;;5134507;28;20842;-53
2024/02/11 12:03:29;;;;;;;1.10;0.40;;;10.80;1.00;;;;;;5136136;28;20418;-54
2024/02/11 12:05:57;;;;;;;0.60;0.40;;;11.00;1.00;;;;;;5135893;28;20423;-56
2024/02/11 12:08:25;;;;;;;0.80;0.40;;;11.00;1.00;;;;;;5134662;28;20406;-55
2024/02/11 12:10:56;;;;;;;0.70;0.30;;;11.00;1.00;;;;;;5134927;28;20418;-56
2024/02/11 12:13:24;;;;;;;0.77;0.40;;;11.10;1.00;;;;;;5135735;28;20438;-49
2024/02/11 12:15:51;;;;;;;1.02;0.40;;;11.00;1.00;;;;;;5134798;28;20557;-55
2024/02/11 12:18:21;;;;;;;1.00;0.40;;;11.00;1.00;;;;;;5151579;27;20428;-53
2024/02/11 12:20:48;;;;;;;0.90;0.30;;;11.30;1.00;;;;;;5124678;27;20508;-52
2024/02/11 12:23:16;;;;;;;0.65;0.30;;;11.30;1.00;;;;;;5157105;27;20878;-55
2024/02/11 12:25:44;;;;;;;0.60;0.40;;;11.20;1.00;;;;;;5118087;27;20497;-55
2024/02/11 12:28:12;;;;;;;0.50;0.20;;;11.40;1.00;;;;;;5118207;28;20422;-56
2024/02/11 12:30:40;;;;;;;0.90;0.30;;;11.50;1.00;;;;;;5134816;28;20422;-56
2024/02/11 12:33:08;;;;;;;0.60;0.30;;;11.50;1.00;;;;;;5141439;27;20447;-54
2024/02/11 12:35:36;;;;;;;0.60;0.30;;;11.60;1.00;;;;;;5146353;27;20406;-53
2024/02/11 12:38:03;;;;;;;0.70;0.30;;;11.50;1.00;;;;;;5136351;28;20410;-56
2024/02/11 12:40:30;;;;;;;1.30;0.30;;;11.50;1.00;;;;;;5131750;28;20435;-57
2024/02/11 12:42:58;;;;;;;0.60;0.30;;;11.60;1.00;;;;;;5115165;28;20432;-55
2024/02/11 12:45:26;;;;;;;0.80;0.30;;;11.60;1.00;;;;;;5131454;27;20450;-54
2024/02/11 12:47:52;;;;;;;0.60;0.30;;;11.50;1.00;;;;;;5128941;27;20520;-56
2024/02/11 12:50:22;;;;;;;0.60;0.30;;;11.50;1.00;;;;;;5138232;27;20449;-57
2024/02/11 12:52:50;;;;;;;0.50;0.30;;;11.60;1.00;;;;;;5137486;27;20465;-56
2024/02/11 12:55:17;;;;;;;0.73;0.40;;;11.60;1.00;;;;;;5133844;27;20438;-55
2024/02/11 12:57:44;;;;;;;0.70;0.40;;;11.60;1.00;;;;;;5139081;27;20478;-53
2024/02/11 13:00:13;;;;;;;0.40;0.20;;;11.70;1.00;;;;;;5131939;27;20436;-57